Etusivu
METAR-TAF:

METAR-TAF

Lentoasemat :

Council Bluffs, Iowa, Yhdysvallat

Leveyspiiri: 41-16N, Pituuspiiri: 095-46W, korkeus merenpinnasta: 382 m

Tämänhetkinen sää

Tämä raportti tehtiin 17 minuuttia sitten, kello 22.35 UTC
Tuuli 15 kn etelästä puuskistuen 22 kn:hen
Lämpötila 35°C
Kosteus 63%
Ilmanpaine 1005 hPa
Näkyvyys: 16.1 km
selkeää

METAR: KCBF 242235Z AUTO 19015G22KT 10SM CLR 35/27 A2967 RMK AO2

Aika: 17:52 (22:52 UTC)


TAF: puuttuu

Säähavainnot ja -ennusteet yli 4000 lentoasemalta (METAR- ja TAF-raportit).

Käytössä olevat sääasemat on merkitty karttaan keltaisilla ja punaisilla pisteillä.

Aseta hiiri pisteen päälle nähdäksesi sääaseman nimen.

Klikkaa sitten nähdäksesi säähavainnot ja -ennusteet.

Kartan vaihtaminen: klikkaa mustalla rastilla varustettuja vihreitä pisteitä, niin voit zoomata sisään; viivalla varustettua vihreää pistettä, niin voit zoomata ulos tai vihreitä nuolia, niin pääset viereisille kartoille.


METAR-TAF: